sensor_id;sensor_type;location;lat;lon;timestamp;P1;durP1;ratioP1;P2;durP2;ratioP2
48552;SDS011;34335;51.566;6.994;2023-08-06T00:02:18;3.83;;;1.67;;
48552;SDS011;34335;51.566;6.994;2023-08-06T00:04:43;2.70;;;1.60;;
48552;SDS011;34335;51.566;6.994;2023-08-06T00:07:08;3.50;;;1.60;;
48552;SDS011;34335;51.566;6.994;2023-08-06T00:09:33;3.23;;;1.50;;
48552;SDS011;34335;51.566;6.994;2023-08-06T00:11:59;4.67;;;1.77;;
48552;SDS011;34335;51.566;6.994;2023-08-06T00:14:24;3.97;;;2.00;;
48552;SDS011;34335;51.566;6.994;2023-08-06T00:16:49;6.97;;;1.90;;
48552;SDS011;34335;51.566;6.994;2023-08-06T00:19:15;3.00;;;1.57;;
48552;SDS011;34335;51.566;6.994;2023-08-06T00:21:40;4.17;;;2.10;;
48552;SDS011;34335;51.566;6.994;2023-08-06T00:24:05;3.93;;;1.73;;
48552;SDS011;34335;51.566;6.994;2023-08-06T00:26:30;4.10;;;1.50;;
48552;SDS011;34335;51.566;6.994;2023-08-06T00:28:56;4.28;;;1.77;;
48552;SDS011;34335;51.566;6.994;2023-08-06T00:31:21;2.72;;;1.40;;
48552;SDS011;34335;51.566;6.994;2023-08-06T00:33:46;3.97;;;2.23;;
48552;SDS011;34335;51.566;6.994;2023-08-06T00:36:12;3.03;;;1.77;;
48552;SDS011;34335;51.566;6.994;2023-08-06T00:38:37;3.50;;;1.70;;
48552;SDS011;34335;51.566;6.994;2023-08-06T00:41:02;3.30;;;1.27;;
48552;SDS011;34335;51.566;6.994;2023-08-06T00:43:28;2.53;;;1.35;;
48552;SDS011;34335;51.566;6.994;2023-08-06T00:45:53;3.83;;;1.70;;
48552;SDS011;34335;51.566;6.994;2023-08-06T00:48:19;2.83;;;1.70;;
48552;SDS011;34335;51.566;6.994;2023-08-06T00:50:44;3.45;;;1.50;;
48552;SDS011;34335;51.566;6.994;2023-08-06T00:53:09;3.08;;;1.77;;
48552;SDS011;34335;51.566;6.994;2023-08-06T00:55:35;3.42;;;1.92;;
48552;SDS011;34335;51.566;6.994;2023-08-06T00:58:01;5.32;;;1.48;;
48552;SDS011;34335;51.566;6.994;2023-08-06T01:00:27;4.43;;;1.30;;
48552;SDS011;34335;51.566;6.994;2023-08-06T01:02:52;3.75;;;1.67;;
48552;SDS011;34335;51.566;6.994;2023-08-06T01:05:19;3.00;;;1.35;;
48552;SDS011;34335;51.566;6.994;2023-08-06T01:12:50;3.38;;;1.50;;
48552;SDS011;34335;51.566;6.994;2023-08-06T01:15:24;3.58;;;1.40;;
48552;SDS011;34335;51.566;6.994;2023-08-06T01:17:54;3.72;;;1.70;;
48552;SDS011;34335;51.566;6.994;2023-08-06T01:20:19;2.00;;;1.10;;
48552;SDS011;34335;51.566;6.994;2023-08-06T01:22:45;2.50;;;1.17;;
48552;SDS011;34335;51.566;6.994;2023-08-06T01:25:10;1.60;;;1.03;;
48552;SDS011;34335;51.566;6.994;2023-08-06T01:27:44;3.38;;;1.65;;
48552;SDS011;34335;51.566;6.994;2023-08-06T01:30:15;2.83;;;1.30;;
48552;SDS011;34335;51.566;6.994;2023-08-06T01:32:43;2.80;;;1.48;;
48552;SDS011;34335;51.566;6.994;2023-08-06T01:35:11;2.58;;;1.35;;
48552;SDS011;34335;51.566;6.994;2023-08-06T01:37:38;3.60;;;1.70;;
48552;SDS011;34335;51.566;6.994;2023-08-06T01:40:10;3.20;;;1.30;;
48552;SDS011;34335;51.566;6.994;2023-08-06T01:42:37;2.97;;;1.55;;
48552;SDS011;34335;51.566;6.994;2023-08-06T01:45:02;3.42;;;1.58;;
48552;SDS011;34335;51.566;6.994;2023-08-06T01:47:28;3.15;;;1.73;;
48552;SDS011;34335;51.566;6.994;2023-08-06T01:49:53;3.67;;;1.30;;
48552;SDS011;34335;51.566;6.994;2023-08-06T01:52:19;3.97;;;1.70;;
48552;SDS011;34335;51.566;6.994;2023-08-06T01:54:44;3.77;;;1.83;;
48552;SDS011;34335;51.566;6.994;2023-08-06T01:57:09;3.28;;;1.73;;
48552;SDS011;34335;51.566;6.994;2023-08-06T01:59:35;3.83;;;1.48;;
48552;SDS011;34335;51.566;6.994;2023-08-06T02:02:00;3.23;;;1.57;;
48552;SDS011;34335;51.566;6.994;2023-08-06T02:04:25;2.97;;;1.20;;
48552;SDS011;34335;51.566;6.994;2023-08-06T02:06:50;2.80;;;1.60;;
48552;SDS011;34335;51.566;6.994;2023-08-06T02:09:16;3.08;;;1.55;;
48552;SDS011;34335;51.566;6.994;2023-08-06T02:11:41;5.20;;;1.90;;
48552;SDS011;34335;51.566;6.994;2023-08-06T02:14:06;2.40;;;1.20;;
48552;SDS011;34335;51.566;6.994;2023-08-06T02:16:32;2.77;;;1.47;;
48552;SDS011;34335;51.566;6.994;2023-08-06T02:18:57;4.33;;;1.73;;
48552;SDS011;34335;51.566;6.994;2023-08-06T02:21:22;5.03;;;2.07;;
48552;SDS011;34335;51.566;6.994;2023-08-06T02:23:47;3.37;;;1.70;;
48552;SDS011;34335;51.566;6.994;2023-08-06T02:26:13;3.27;;;1.70;;
48552;SDS011;34335;51.566;6.994;2023-08-06T02:28:38;3.90;;;1.77;;
48552;SDS011;34335;51.566;6.994;2023-08-06T02:31:03;2.17;;;1.17;;
48552;SDS011;34335;51.566;6.994;2023-08-06T02:33:29;4.43;;;1.63;;
48552;SDS011;34335;51.566;6.994;2023-08-06T02:36:01;2.83;;;1.48;;
48552;SDS011;34335;51.566;6.994;2023-08-06T02:38:28;3.40;;;1.70;;
48552;SDS011;34335;51.566;6.994;2023-08-06T02:40:53;3.45;;;1.83;;
48552;SDS011;34335;51.566;6.994;2023-08-06T02:43:18;5.17;;;2.20;;
48552;SDS011;34335;51.566;6.994;2023-08-06T02:45:44;4.00;;;1.60;;
48552;SDS011;34335;51.566;6.994;2023-08-06T02:48:09;4.57;;;2.03;;
48552;SDS011;34335;51.566;6.994;2023-08-06T02:50:38;3.38;;;1.58;;
48552;SDS011;34335;51.566;6.994;2023-08-06T02:53:05;3.28;;;1.50;;
48552;SDS011;34335;51.566;6.994;2023-08-06T02:55:32;3.60;;;2.05;;
48552;SDS011;34335;51.566;6.994;2023-08-06T02:57:58;3.17;;;1.90;;
48552;SDS011;34335;51.566;6.994;2023-08-06T03:00:24;2.37;;;1.47;;
48552;SDS011;34335;51.566;6.994;2023-08-06T03:02:49;4.37;;;2.33;;
48552;SDS011;34335;51.566;6.994;2023-08-06T03:05:14;3.50;;;1.90;;
48552;SDS011;34335;51.566;6.994;2023-08-06T03:07:39;5.53;;;1.70;;
48552;SDS011;34335;51.566;6.994;2023-08-06T03:10:05;4.95;;;1.75;;
48552;SDS011;34335;51.566;6.994;2023-08-06T03:12:31;3.90;;;1.60;;
48552;SDS011;34335;51.566;6.994;2023-08-06T03:14:56;2.75;;;1.38;;
48552;SDS011;34335;51.566;6.994;2023-08-06T03:17:21;2.27;;;1.17;;
48552;SDS011;34335;51.566;6.994;2023-08-06T03:19:46;2.97;;;1.63;;
48552;SDS011;34335;51.566;6.994;2023-08-06T03:22:12;3.50;;;1.60;;
48552;SDS011;34335;51.566;6.994;2023-08-06T03:24:37;3.83;;;1.27;;
48552;SDS011;34335;51.566;6.994;2023-08-06T03:27:02;2.33;;;1.20;;
48552;SDS011;34335;51.566;6.994;2023-08-06T03:29:28;3.20;;;1.63;;
48552;SDS011;34335;51.566;6.994;2023-08-06T03:31:53;2.50;;;1.43;;
48552;SDS011;34335;51.566;6.994;2023-08-06T03:34:18;3.45;;;1.58;;
48552;SDS011;34335;51.566;6.994;2023-08-06T03:36:43;4.17;;;1.50;;
48552;SDS011;34335;51.566;6.994;2023-08-06T03:39:09;3.25;;;1.45;;
48552;SDS011;34335;51.566;6.994;2023-08-06T03:41:34;2.13;;;1.17;;
48552;SDS011;34335;51.566;6.994;2023-08-06T03:43:59;2.67;;;1.43;;
48552;SDS011;34335;51.566;6.994;2023-08-06T03:46:27;2.47;;;1.23;;
48552;SDS011;34335;51.566;6.994;2023-08-06T03:48:53;3.60;;;1.75;;
48552;SDS011;34335;51.566;6.994;2023-08-06T03:51:18;4.47;;;1.60;;
48552;SDS011;34335;51.566;6.994;2023-08-06T03:53:43;2.67;;;1.50;;
48552;SDS011;34335;51.566;6.994;2023-08-06T03:56:09;3.97;;;2.03;;
48552;SDS011;34335;51.566;6.994;2023-08-06T03:58:34;5.03;;;1.67;;
48552;SDS011;34335;51.566;6.994;2023-08-06T04:01:00;2.33;;;1.30;;
48552;SDS011;34335;51.566;6.994;2023-08-06T04:03:26;3.47;;;1.65;;
48552;SDS011;34335;51.566;6.994;2023-08-06T04:05:52;2.60;;;1.48;;
48552;SDS011;34335;51.566;6.994;2023-08-06T04:08:17;3.33;;;1.55;;
48552;SDS011;34335;51.566;6.994;2023-08-06T04:10:42;1.83;;;1.13;;
48552;SDS011;34335;51.566;6.994;2023-08-06T04:13:07;2.63;;;1.50;;
48552;SDS011;34335;51.566;6.994;2023-08-06T04:15:33;3.10;;;1.30;;
48552;SDS011;34335;51.566;6.994;2023-08-06T04:17:59;3.80;;;1.60;;
48552;SDS011;34335;51.566;6.994;2023-08-06T04:20:25;3.33;;;1.60;;
48552;SDS011;34335;51.566;6.994;2023-08-06T04:22:50;2.97;;;1.50;;
48552;SDS011;34335;51.566;6.994;2023-08-06T04:25:15;2.67;;;1.33;;
48552;SDS011;34335;51.566;6.994;2023-08-06T04:27:45;4.97;;;1.50;;
48552;SDS011;34335;51.566;6.994;2023-08-06T04:30:13;2.42;;;1.20;;
48552;SDS011;34335;51.566;6.994;2023-08-06T04:32:39;3.07;;;1.30;;
48552;SDS011;34335;51.566;6.994;2023-08-06T04:35:05;2.67;;;1.33;;
48552;SDS011;34335;51.566;6.994;2023-08-06T04:37:30;3.17;;;1.35;;
48552;SDS011;34335;51.566;6.994;2023-08-06T04:39:56;3.17;;;1.20;;
48552;SDS011;34335;51.566;6.994;2023-08-06T04:42:21;2.30;;;1.30;;
48552;SDS011;34335;51.566;6.994;2023-08-06T04:44:46;3.23;;;1.30;;
48552;SDS011;34335;51.566;6.994;2023-08-06T04:47:11;2.93;;;1.50;;
48552;SDS011;34335;51.566;6.994;2023-08-06T04:49:37;8.33;;;1.60;;
48552;SDS011;34335;51.566;6.994;2023-08-06T04:52:02;2.67;;;1.40;;
48552;SDS011;34335;51.566;6.994;2023-08-06T04:54:27;2.80;;;1.35;;
48552;SDS011;34335;51.566;6.994;2023-08-06T04:56:53;8.18;;;1.92;;
48552;SDS011;34335;51.566;6.994;2023-08-06T04:59:18;3.23;;;1.53;;
48552;SDS011;34335;51.566;6.994;2023-08-06T05:01:43;2.90;;;1.50;;
48552;SDS011;34335;51.566;6.994;2023-08-06T05:04:09;3.27;;;1.67;;
48552;SDS011;34335;51.566;6.994;2023-08-06T05:06:34;3.60;;;1.47;;
48552;SDS011;34335;51.566;6.994;2023-08-06T05:08:59;5.80;;;1.50;;
48552;SDS011;34335;51.566;6.994;2023-08-06T05:11:24;3.42;;;1.70;;
48552;SDS011;34335;51.566;6.994;2023-08-06T05:13:50;2.60;;;1.40;;
48552;SDS011;34335;51.566;6.994;2023-08-06T05:16:15;2.80;;;1.53;;
48552;SDS011;34335;51.566;6.994;2023-08-06T05:18:40;3.30;;;1.70;;
48552;SDS011;34335;51.566;6.994;2023-08-06T05:21:06;4.47;;;1.50;;
48552;SDS011;34335;51.566;6.994;2023-08-06T05:23:32;2.50;;;1.42;;
48552;SDS011;34335;51.566;6.994;2023-08-06T05:25:57;2.50;;;1.50;;
48552;SDS011;34335;51.566;6.994;2023-08-06T05:28:22;3.57;;;1.60;;
48552;SDS011;34335;51.566;6.994;2023-08-06T05:30:47;3.33;;;1.50;;
48552;SDS011;34335;51.566;6.994;2023-08-06T05:33:13;2.97;;;1.77;;
48552;SDS011;34335;51.566;6.994;2023-08-06T05:35:40;3.85;;;1.58;;
48552;SDS011;34335;51.566;6.994;2023-08-06T05:38:05;2.63;;;1.30;;
48552;SDS011;34335;51.566;6.994;2023-08-06T05:40:32;3.55;;;1.83;;
48552;SDS011;34335;51.566;6.994;2023-08-06T05:42:58;3.08;;;1.60;;
48552;SDS011;34335;51.566;6.994;2023-08-06T05:45:24;4.03;;;1.40;;
48552;SDS011;34335;51.566;6.994;2023-08-06T05:47:49;3.80;;;1.80;;
48552;SDS011;34335;51.566;6.994;2023-08-06T05:50:14;3.03;;;1.50;;
48552;SDS011;34335;51.566;6.994;2023-08-06T05:52:40;3.03;;;1.15;;
48552;SDS011;34335;51.566;6.994;2023-08-06T05:55:05;4.43;;;1.42;;
48552;SDS011;34335;51.566;6.994;2023-08-06T05:57:31;3.70;;;1.70;;
48552;SDS011;34335;51.566;6.994;2023-08-06T05:59:56;7.82;;;1.75;;
48552;SDS011;34335;51.566;6.994;2023-08-06T06:02:22;3.72;;;1.92;;
48552;SDS011;34335;51.566;6.994;2023-08-06T06:04:47;2.78;;;1.38;;
48552;SDS011;34335;51.566;6.994;2023-08-06T06:07:12;3.65;;;1.58;;
48552;SDS011;34335;51.566;6.994;2023-08-06T06:09:39;5.35;;;1.85;;
48552;SDS011;34335;51.566;6.994;2023-08-06T06:12:05;2.83;;;1.50;;
48552;SDS011;34335;51.566;6.994;2023-08-06T06:14:31;4.32;;;1.50;;
48552;SDS011;34335;51.566;6.994;2023-08-06T06:16:56;3.90;;;1.83;;
48552;SDS011;34335;51.566;6.994;2023-08-06T06:19:22;3.30;;;1.50;;
48552;SDS011;34335;51.566;6.994;2023-08-06T06:21:47;3.88;;;1.70;;
48552;SDS011;34335;51.566;6.994;2023-08-06T06:24:13;3.95;;;1.80;;
48552;SDS011;34335;51.566;6.994;2023-08-06T06:26:38;2.08;;;1.35;;
48552;SDS011;34335;51.566;6.994;2023-08-06T06:29:04;4.18;;;1.90;;
48552;SDS011;34335;51.566;6.994;2023-08-06T06:31:29;2.53;;;1.30;;
48552;SDS011;34335;51.566;6.994;2023-08-06T06:33:55;2.90;;;1.33;;
48552;SDS011;34335;51.566;6.994;2023-08-06T06:36:20;4.15;;;1.60;;
48552;SDS011;34335;51.566;6.994;2023-08-06T06:38:46;2.90;;;1.38;;
48552;SDS011;34335;51.566;6.994;2023-08-06T06:41:12;4.35;;;1.70;;
48552;SDS011;34335;51.566;6.994;2023-08-06T06:43:38;3.23;;;1.53;;
48552;SDS011;34335;51.566;6.994;2023-08-06T06:46:05;2.75;;;1.58;;
48552;SDS011;34335;51.566;6.994;2023-08-06T06:48:31;2.40;;;1.17;;
48552;SDS011;34335;51.566;6.994;2023-08-06T06:50:58;3.25;;;1.58;;
48552;SDS011;34335;51.566;6.994;2023-08-06T06:53:23;3.40;;;1.60;;
48552;SDS011;34335;51.566;6.994;2023-08-06T06:56:02;4.22;;;1.48;;
48552;SDS011;34335;51.566;6.994;2023-08-06T06:58:29;2.53;;;1.35;;
48552;SDS011;34335;51.566;6.994;2023-08-06T07:00:54;3.60;;;1.90;;
48552;SDS011;34335;51.566;6.994;2023-08-06T07:03:20;3.25;;;1.58;;
48552;SDS011;34335;51.566;6.994;2023-08-06T07:05:45;3.17;;;1.38;;
48552;SDS011;34335;51.566;6.994;2023-08-06T07:08:11;2.53;;;1.20;;
48552;SDS011;34335;51.566;6.994;2023-08-06T07:10:36;3.05;;;1.50;;
48552;SDS011;34335;51.566;6.994;2023-08-06T07:13:02;2.22;;;1.20;;
48552;SDS011;34335;51.566;6.994;2023-08-06T07:15:27;2.92;;;1.20;;
48552;SDS011;34335;51.566;6.994;2023-08-06T07:17:53;2.25;;;1.17;;
48552;SDS011;34335;51.566;6.994;2023-08-06T07:20:18;2.58;;;1.10;;
48552;SDS011;34335;51.566;6.994;2023-08-06T07:22:44;2.53;;;1.33;;
48552;SDS011;34335;51.566;6.994;2023-08-06T07:25:10;3.40;;;1.50;;
48552;SDS011;34335;51.566;6.994;2023-08-06T07:27:35;2.75;;;1.27;;
48552;SDS011;34335;51.566;6.994;2023-08-06T07:30:01;3.00;;;1.23;;
48552;SDS011;34335;51.566;6.994;2023-08-06T07:32:26;3.63;;;1.60;;
48552;SDS011;34335;51.566;6.994;2023-08-06T07:34:53;2.67;;;1.50;;
48552;SDS011;34335;51.566;6.994;2023-08-06T07:37:22;4.35;;;1.40;;
48552;SDS011;34335;51.566;6.994;2023-08-06T07:39:48;2.75;;;1.40;;
48552;SDS011;34335;51.566;6.994;2023-08-06T07:42:13;3.70;;;1.48;;
48552;SDS011;34335;51.566;6.994;2023-08-06T07:44:39;1.95;;;1.08;;
48552;SDS011;34335;51.566;6.994;2023-08-06T07:47:04;3.50;;;1.23;;
48552;SDS011;34335;51.566;6.994;2023-08-06T07:49:30;3.30;;;1.27;;
48552;SDS011;34335;51.566;6.994;2023-08-06T07:51:55;4.30;;;1.30;;
48552;SDS011;34335;51.566;6.994;2023-08-06T07:54:21;2.50;;;1.23;;
48552;SDS011;34335;51.566;6.994;2023-08-06T07:56:46;2.85;;;1.40;;
48552;SDS011;34335;51.566;6.994;2023-08-06T07:59:12;3.43;;;1.37;;
48552;SDS011;34335;51.566;6.994;2023-08-06T08:01:37;2.70;;;1.27;;
48552;SDS011;34335;51.566;6.994;2023-08-06T08:04:03;2.47;;;1.38;;
48552;SDS011;34335;51.566;6.994;2023-08-06T08:06:29;2.78;;;1.25;;
48552;SDS011;34335;51.566;6.994;2023-08-06T08:08:55;3.17;;;1.42;;
48552;SDS011;34335;51.566;6.994;2023-08-06T08:11:20;1.07;;;0.80;;
48552;SDS011;34335;51.566;6.994;2023-08-06T08:13:45;3.65;;;1.92;;
48552;SDS011;34335;51.566;6.994;2023-08-06T08:16:11;2.67;;;1.10;;
48552;SDS011;34335;51.566;6.994;2023-08-06T08:18:36;2.53;;;1.17;;
48552;SDS011;34335;51.566;6.994;2023-08-06T08:21:02;2.63;;;1.42;;
48552;SDS011;34335;51.566;6.994;2023-08-06T08:23:27;3.72;;;1.33;;
48552;SDS011;34335;51.566;6.994;2023-08-06T08:25:53;2.47;;;1.27;;
48552;SDS011;34335;51.566;6.994;2023-08-06T08:28:18;2.08;;;1.08;;
48552;SDS011;34335;51.566;6.994;2023-08-06T08:30:44;3.40;;;1.45;;
48552;SDS011;34335;51.566;6.994;2023-08-06T08:33:09;2.17;;;0.90;;
48552;SDS011;34335;51.566;6.994;2023-08-06T08:35:35;1.87;;;0.83;;
48552;SDS011;34335;51.566;6.994;2023-08-06T08:38:01;3.63;;;1.02;;
48552;SDS011;34335;51.566;6.994;2023-08-06T08:40:28;2.10;;;0.98;;
48552;SDS011;34335;51.566;6.994;2023-08-06T08:42:57;2.15;;;1.15;;
48552;SDS011;34335;51.566;6.994;2023-08-06T08:45:24;4.85;;;1.58;;
48552;SDS011;34335;51.566;6.994;2023-08-06T08:47:53;6.50;;;1.27;;
48552;SDS011;34335;51.566;6.994;2023-08-06T08:50:19;1.90;;;1.05;;
48552;SDS011;34335;51.566;6.994;2023-08-06T08:52:45;2.38;;;1.38;;
48552;SDS011;34335;51.566;6.994;2023-08-06T08:55:11;11.07;;;1.52;;
48552;SDS011;34335;51.566;6.994;2023-08-06T08:57:39;8.88;;;2.70;;
48552;SDS011;34335;51.566;6.994;2023-08-06T09:00:04;19.25;;;2.05;;
48552;SDS011;34335;51.566;6.994;2023-08-06T09:02:30;5.07;;;1.48;;
48552;SDS011;34335;51.566;6.994;2023-08-06T09:04:58;4.13;;;1.23;;
48552;SDS011;34335;51.566;6.994;2023-08-06T09:07:29;4.78;;;1.52;;
48552;SDS011;34335;51.566;6.994;2023-08-06T09:10:07;7.07;;;2.13;;
48552;SDS011;34335;51.566;6.994;2023-08-06T09:12:35;2.08;;;1.17;;
48552;SDS011;34335;51.566;6.994;2023-08-06T09:15:01;5.88;;;1.77;;
48552;SDS011;34335;51.566;6.994;2023-08-06T09:17:28;5.10;;;1.92;;
48552;SDS011;34335;51.566;6.994;2023-08-06T09:19:54;2.53;;;1.08;;
48552;SDS011;34335;51.566;6.994;2023-08-06T09:22:19;2.22;;;1.08;;
48552;SDS011;34335;51.566;6.994;2023-08-06T09:24:44;4.05;;;1.77;;
48552;SDS011;34335;51.566;6.994;2023-08-06T09:27:10;2.53;;;1.23;;
48552;SDS011;34335;51.566;6.994;2023-08-06T09:29:40;6.15;;;1.50;;
48552;SDS011;34335;51.566;6.994;2023-08-06T09:32:09;3.75;;;1.75;;
48552;SDS011;34335;51.566;6.994;2023-08-06T09:34:35;2.15;;;1.20;;
48552;SDS011;34335;51.566;6.994;2023-08-06T09:37:04;2.90;;;1.35;;
48552;SDS011;34335;51.566;6.994;2023-08-06T09:39:30;2.20;;;1.27;;
48552;SDS011;34335;51.566;6.994;2023-08-06T09:41:56;3.55;;;1.48;;
48552;SDS011;34335;51.566;6.994;2023-08-06T09:44:24;1.90;;;1.00;;
48552;SDS011;34335;51.566;6.994;2023-08-06T09:49:17;3.60;;;1.35;;
48552;SDS011;34335;51.566;6.994;2023-08-06T09:51:44;3.05;;;1.70;;
48552;SDS011;34335;51.566;6.994;2023-08-06T09:54:12;3.95;;;2.10;;
48552;SDS011;34335;51.566;6.994;2023-08-06T09:56:37;3.35;;;1.70;;
48552;SDS011;34335;51.566;6.994;2023-08-06T09:59:06;3.28;;;1.98;;
48552;SDS011;34335;51.566;6.994;2023-08-06T10:01:33;5.03;;;2.75;;
48552;SDS011;34335;51.566;6.994;2023-08-06T10:04:00;4.63;;;2.58;;
48552;SDS011;34335;51.566;6.994;2023-08-06T10:06:28;4.03;;;2.17;;
48552;SDS011;34335;51.566;6.994;2023-08-06T10:08:54;3.50;;;1.90;;
48552;SDS011;34335;51.566;6.994;2023-08-06T10:11:21;3.85;;;1.92;;
48552;SDS011;34335;51.566;6.994;2023-08-06T10:13:47;3.22;;;2.00;;
48552;SDS011;34335;51.566;6.994;2023-08-06T10:16:14;4.50;;;2.28;;
48552;SDS011;34335;51.566;6.994;2023-08-06T10:18:40;4.07;;;2.35;;
48552;SDS011;34335;51.566;6.994;2023-08-06T10:21:09;4.38;;;2.33;;
48552;SDS011;34335;51.566;6.994;2023-08-06T10:23:35;4.15;;;2.05;;
48552;SDS011;34335;51.566;6.994;2023-08-06T10:26:03;4.20;;;2.60;;
48552;SDS011;34335;51.566;6.994;2023-08-06T10:28:47;7.32;;;2.85;;
48552;SDS011;34335;51.566;6.994;2023-08-06T10:31:12;5.40;;;2.42;;
48552;SDS011;34335;51.566;6.994;2023-08-06T10:33:44;4.20;;;2.50;;
48552;SDS011;34335;51.566;6.994;2023-08-06T10:36:10;6.90;;;2.83;;
48552;SDS011;34335;51.566;6.994;2023-08-06T10:38:46;4.82;;;3.00;;
48552;SDS011;34335;51.566;6.994;2023-08-06T10:41:22;4.63;;;2.45;;
48552;SDS011;34335;51.566;6.994;2023-08-06T10:43:52;5.05;;;2.90;;
48552;SDS011;34335;51.566;6.994;2023-08-06T10:46:21;5.85;;;2.75;;
48552;SDS011;34335;51.566;6.994;2023-08-06T10:48:48;5.45;;;2.70;;
48552;SDS011;34335;51.566;6.994;2023-08-06T10:51:14;6.40;;;3.25;;
48552;SDS011;34335;51.566;6.994;2023-08-06T10:53:43;4.57;;;3.05;;
48552;SDS011;34335;51.566;6.994;2023-08-06T10:56:13;4.28;;;2.35;;
48552;SDS011;34335;51.566;6.994;2023-08-06T10:58:40;5.68;;;2.65;;
48552;SDS011;34335;51.566;6.994;2023-08-06T11:01:06;5.00;;;2.95;;
48552;SDS011;34335;51.566;6.994;2023-08-06T11:03:32;6.25;;;2.80;;
48552;SDS011;34335;51.566;6.994;2023-08-06T11:05:59;4.93;;;2.80;;
48552;SDS011;34335;51.566;6.994;2023-08-06T11:08:25;4.90;;;2.38;;
48552;SDS011;34335;51.566;6.994;2023-08-06T11:10:52;4.75;;;3.20;;
48552;SDS011;34335;51.566;6.994;2023-08-06T11:13:18;4.35;;;2.50;;
48552;SDS011;34335;51.566;6.994;2023-08-06T11:15:44;6.03;;;3.05;;
48552;SDS011;34335;51.566;6.994;2023-08-06T11:18:10;4.10;;;2.42;;
48552;SDS011;34335;51.566;6.994;2023-08-06T11:20:36;5.07;;;3.08;;
48552;SDS011;34335;51.566;6.994;2023-08-06T11:23:02;4.38;;;3.10;;
48552;SDS011;34335;51.566;6.994;2023-08-06T11:25:27;6.20;;;3.10;;
48552;SDS011;34335;51.566;6.994;2023-08-06T11:27:54;5.28;;;3.30;;
48552;SDS011;34335;51.566;6.994;2023-08-06T11:30:19;6.73;;;3.43;;
48552;SDS011;34335;51.566;6.994;2023-08-06T11:32:45;6.30;;;3.30;;
48552;SDS011;34335;51.566;6.994;2023-08-06T11:35:12;6.15;;;3.88;;
48552;SDS011;34335;51.566;6.994;2023-08-06T11:37:38;8.75;;;4.20;;
48552;SDS011;34335;51.566;6.994;2023-08-06T11:40:08;6.53;;;3.80;;
48552;SDS011;34335;51.566;6.994;2023-08-06T11:42:35;7.43;;;3.95;;
48552;SDS011;34335;51.566;6.994;2023-08-06T11:45:02;6.88;;;4.13;;
48552;SDS011;34335;51.566;6.994;2023-08-06T11:47:28;6.15;;;4.00;;
48552;SDS011;34335;51.566;6.994;2023-08-06T11:49:53;5.33;;;2.83;;
48552;SDS011;34335;51.566;6.994;2023-08-06T11:52:20;4.18;;;2.58;;
48552;SDS011;34335;51.566;6.994;2023-08-06T11:55:09;3.65;;;1.70;;
48552;SDS011;34335;51.566;6.994;2023-08-06T11:57:37;3.15;;;1.40;;
48552;SDS011;34335;51.566;6.994;2023-08-06T12:00:08;2.42;;;1.17;;
48552;SDS011;34335;51.566;6.994;2023-08-06T12:02:35;2.58;;;1.20;;
48552;SDS011;34335;51.566;6.994;2023-08-06T12:05:21;2.17;;;1.02;;
48552;SDS011;34335;51.566;6.994;2023-08-06T12:07:51;2.53;;;1.33;;
48552;SDS011;34335;51.566;6.994;2023-08-06T12:10:18;2.33;;;1.20;;
48552;SDS011;34335;51.566;6.994;2023-08-06T12:12:45;3.00;;;1.33;;
48552;SDS011;34335;51.566;6.994;2023-08-06T12:15:11;2.20;;;0.98;;
48552;SDS011;34335;51.566;6.994;2023-08-06T12:17:36;1.35;;;0.75;;
48552;SDS011;34335;51.566;6.994;2023-08-06T12:20:02;2.55;;;0.93;;
48552;SDS011;34335;51.566;6.994;2023-08-06T12:22:29;1.95;;;0.82;;
48552;SDS011;34335;51.566;6.994;2023-08-06T12:24:59;1.58;;;0.88;;
48552;SDS011;34335;51.566;6.994;2023-08-06T12:27:26;0.65;;;0.50;;
48552;SDS011;34335;51.566;6.994;2023-08-06T12:29:51;1.75;;;0.40;;
48552;SDS011;34335;51.566;6.994;2023-08-06T12:32:16;0.85;;;0.40;;
48552;SDS011;34335;51.566;6.994;2023-08-06T12:34:42;0.98;;;0.47;;
48552;SDS011;34335;51.566;6.994;2023-08-06T12:37:07;1.33;;;0.40;;
48552;SDS011;34335;51.566;6.994;2023-08-06T12:39:34;1.70;;;0.30;;
48552;SDS011;34335;51.566;6.994;2023-08-06T12:42:03;0.30;;;0.25;;
48552;SDS011;34335;51.566;6.994;2023-08-06T12:44:30;0.77;;;0.35;;
48552;SDS011;34335;51.566;6.994;2023-08-06T12:46:55;0.22;;;0.20;;
48552;SDS011;34335;51.566;6.994;2023-08-06T12:49:21;1.10;;;0.45;;
48552;SDS011;34335;51.566;6.994;2023-08-06T12:51:47;0.25;;;0.25;;
48552;SDS011;34335;51.566;6.994;2023-08-06T12:54:17;0.73;;;0.28;;
48552;SDS011;34335;51.566;6.994;2023-08-06T12:56:43;1.63;;;0.40;;
48552;SDS011;34335;51.566;6.994;2023-08-06T12:59:09;0.20;;;0.20;;
48552;SDS011;34335;51.566;6.994;2023-08-06T13:01:34;0.30;;;0.27;;
48552;SDS011;34335;51.566;6.994;2023-08-06T13:04:00;1.20;;;0.40;;
48552;SDS011;34335;51.566;6.994;2023-08-06T13:06:25;0.20;;;0.20;;
48552;SDS011;34335;51.566;6.994;2023-08-06T13:08:50;0.20;;;0.20;;
48552;SDS011;34335;51.566;6.994;2023-08-06T13:11:16;0.30;;;0.30;;
48552;SDS011;34335;51.566;6.994;2023-08-06T13:13:41;1.80;;;0.45;;
48552;SDS011;34335;51.566;6.994;2023-08-06T13:16:06;0.20;;;0.20;;
48552;SDS011;34335;51.566;6.994;2023-08-06T13:18:32;0.53;;;0.20;;
48552;SDS011;34335;51.566;6.994;2023-08-06T13:20:57;0.20;;;0.20;;
48552;SDS011;34335;51.566;6.994;2023-08-06T13:23:41;0.50;;;0.40;;
48552;SDS011;34335;51.566;6.994;2023-08-06T13:26:07;0.30;;;0.30;;
48552;SDS011;34335;51.566;6.994;2023-08-06T13:28:32;0.38;;;0.30;;
48552;SDS011;34335;51.566;6.994;2023-08-06T13:30:57;2.80;;;0.50;;
48552;SDS011;34335;51.566;6.994;2023-08-06T13:33:23;1.35;;;0.38;;
48552;SDS011;34335;51.566;6.994;2023-08-06T13:35:48;0.27;;;0.27;;
48552;SDS011;34335;51.566;6.994;2023-08-06T13:38:15;1.10;;;0.50;;
48552;SDS011;34335;51.566;6.994;2023-08-06T13:40:41;0.50;;;0.40;;
48552;SDS011;34335;51.566;6.994;2023-08-06T13:43:07;2.85;;;0.50;;
48552;SDS011;34335;51.566;6.994;2023-08-06T13:45:32;0.52;;;0.30;;
48552;SDS011;34335;51.566;6.994;2023-08-06T13:47:59;0.98;;;0.40;;
48552;SDS011;34335;51.566;6.994;2023-08-06T13:50:25;0.60;;;0.40;;
48552;SDS011;34335;51.566;6.994;2023-08-06T13:52:51;0.90;;;0.50;;
48552;SDS011;34335;51.566;6.994;2023-08-06T13:55:18;0.82;;;0.40;;
48552;SDS011;34335;51.566;6.994;2023-08-06T13:57:43;1.55;;;0.73;;
48552;SDS011;34335;51.566;6.994;2023-08-06T14:00:08;0.75;;;0.50;;
48552;SDS011;34335;51.566;6.994;2023-08-06T14:02:34;1.02;;;0.50;;
48552;SDS011;34335;51.566;6.994;2023-08-06T14:04:59;0.57;;;0.50;;
48552;SDS011;34335;51.566;6.994;2023-08-06T14:07:25;1.15;;;0.50;;
48552;SDS011;34335;51.566;6.994;2023-08-06T14:09:50;0.63;;;0.40;;
48552;SDS011;34335;51.566;6.994;2023-08-06T14:12:15;1.73;;;0.60;;
48552;SDS011;34335;51.566;6.994;2023-08-06T14:14:41;1.15;;;0.52;;
48552;SDS011;34335;51.566;6.994;2023-08-06T14:17:06;1.77;;;0.70;;
48552;SDS011;34335;51.566;6.994;2023-08-06T14:19:31;1.33;;;0.90;;
48552;SDS011;34335;51.566;6.994;2023-08-06T14:21:57;1.25;;;0.60;;
48552;SDS011;34335;51.566;6.994;2023-08-06T14:24:22;1.30;;;0.60;;
48552;SDS011;34335;51.566;6.994;2023-08-06T14:26:47;1.80;;;0.68;;
48552;SDS011;34335;51.566;6.994;2023-08-06T14:29:13;2.25;;;1.17;;
48552;SDS011;34335;51.566;6.994;2023-08-06T14:31:39;1.55;;;0.82;;
48552;SDS011;34335;51.566;6.994;2023-08-06T14:34:05;1.98;;;0.80;;
48552;SDS011;34335;51.566;6.994;2023-08-06T14:36:30;1.20;;;0.70;;
48552;SDS011;34335;51.566;6.994;2023-08-06T14:38:55;1.93;;;0.93;;
48552;SDS011;34335;51.566;6.994;2023-08-06T14:41:21;2.80;;;1.20;;
48552;SDS011;34335;51.566;6.994;2023-08-06T14:43:46;1.77;;;0.70;;
48552;SDS011;34335;51.566;6.994;2023-08-06T14:46:11;1.17;;;0.73;;
48552;SDS011;34335;51.566;6.994;2023-08-06T14:48:36;2.58;;;0.98;;
48552;SDS011;34335;51.566;6.994;2023-08-06T14:51:02;2.33;;;0.82;;